To NAV CANADA Home Page Login to a new session Search on AWWS site Feedback and Comments Disclaimer Vers la page française équivalente Tips FAQ What's new on the site To the Forecasts and Observations / NOTAM section To "File a Flight Plan" website Publications and other links Update of the User's profile FIC Telephone Numbers My Weather Data Folder Route Weather Data Regional Weather Data Local Weather Data To the Forecasts and Observations / NOTAM section
Request Generated 11/28/2015 at 11:11:19 UTC . Weather information available at that time is displayed.



METAR CYBX 281100Z 35012KT 15SM FEW100 M08/M12 A3010 RMK AC1 SLP197=
METAR CYBX 281000Z 35007KT 15SM SCT030 M08/M12 A3008 RMK SC4 SLP189=
METAR CYBX 280900Z 01008KT 15SM BKN030 M06/M11 A3006 RMK SC7 SLP181=

TAF CYBX 280738Z 2808/2820 02012G22KT 11/2SM -SN OVC012 TEMPO
2808/2810 6SM -SN OVC025
FM281000 36015KT P6SM OVC050 TEMPO 2810/2812 P6SM -SN OVC015
FM281200 36015KT P6SM SKC
Your time UTC time
Weather data provided by Environment Canada and NAV CANADA